Главная страница
METAR-TAF:

METAR-TAF

Аэропорты :

Триполи, Ливия

широта: 32-54N, долгота: 13-17E, высота над уровнем моря: 11 м

Текущие метеонаблюдения

Эта сводка был подготовлена 16 минут назад, в 11:50 UTC
Ветер 11 Узел от западно-северо-западный
Температура 18°C
Влажность 73%
Давление 1021 hPa
Видимость: 7000 м
Рассеянная облачность на высоте 3000 фута
Рассеянная облачность на высоте 7000 фута

METAR: HLLM 221150Z 29011KT 7000 BKN030 BKN070 18/13 Q1021

Время: 14:06 (12:06 UTC)

Прогноз

Эта сводка был подготовлена 7 часа и 6 минут назад, в 05:00 UTC
Прогноз действительный с 22-го 06 UTC до 23-го 06 UTC
Ветер 10 Узел от западный-юго-западный
Видимость: 8000 м
Отдельные облака на высоте 2500 фута

TAF: HLLM 220500Z 2206/2306 27015KT 8000 SCT025 BECMG2212/2214 34015KT BECMG2218/2220 24010KT

Метеонаблюдения и прогнозы для более 4000 аэропортов (сводки METAR и TAF).

Имеющиеся станции представлены на карте желтыми и красными точками.

Чтобы увидеть название станции, наведите на нее мышь.

Затем щелкните, чтобы увидеть метеонаблюдения и метеопрогнозы.

Управление картой: чтобы увеличить масштаб, щелкните зеленые кнопки с черным крестиком; чтобы уменьшить масштаб, щелкните зеленую кнопку с тире; для просмотра соседних карт щелкайте зеленые стрелки.


METAR-TAF: